Time;durP1;ratioP1;P1;durP2;ratioP2;P2;SDS_P1;SDS_P2;PMS_P1;PMS_P2;Temp;Humidity;BMP_temperature;BMP_pressure;BME280_temperature;BME280_humidity;BME280_pressure;Samples;Min_cycle;Max_cycle;Signal;HPM_P1;HPM_P2
2022/01/09 00:02:25;;;;;;;30.27;5.90;;;7.30;84.30;;;;;;5030191;28;20034;-72
2022/01/09 00:04:52;;;;;;;28.10;5.93;;;7.20;84.50;;;;;;5036078;28;20120;-72
2022/01/09 00:07:19;;;;;;;29.27;6.00;;;7.20;84.70;;;;;;5035159;28;20048;-72
2022/01/09 00:09:46;;;;;;;22.75;5.40;;;7.20;84.10;;;;;;5034403;28;20026;-72
2022/01/09 00:12:12;;;;;;;25.30;4.72;;;7.20;84.40;;;;;;5031955;28;20360;-72
2022/01/09 00:14:40;;;;;;;26.60;6.60;;;7.20;84.80;;;;;;5035604;28;20030;-71
2022/01/09 00:17:06;;;;;;;26.63;5.78;;;7.20;84.60;;;;;;5034666;28;20076;-71
2022/01/09 00:19:34;;;;;;;25.77;5.95;;;7.20;84.00;;;;;;5036203;28;20029;-71
2022/01/09 00:22:01;;;;;;;32.15;6.70;;;7.20;84.60;;;;;;5035132;28;20044;-71
2022/01/09 00:24:27;;;;;;;25.25;6.35;;;7.20;84.80;;;;;;5034064;28;20361;-71
2022/01/09 00:26:55;;;;;;;24.67;5.68;;;7.10;85.00;;;;;;5035150;28;20037;-71
2022/01/09 00:29:22;;;;;;;27.70;5.57;;;7.10;85.10;;;;;;5032925;28;20026;-71
2022/01/09 00:31:50;;;;;;;28.70;5.88;;;7.00;85.90;;;;;;5034904;28;20041;-71
2022/01/09 00:34:18;;;;;;;27.52;5.30;;;6.90;85.90;;;;;;5034648;28;20041;-71
2022/01/09 00:36:46;;;;;;;27.52;6.63;;;6.90;86.00;;;;;;5028664;28;20041;-71
2022/01/09 00:39:14;;;;;;;22.02;4.95;;;6.90;85.60;;;;;;5035172;28;20160;-71
2022/01/09 00:41:42;;;;;;;32.10;5.80;;;6.80;84.80;;;;;;5032869;28;20033;-71
2022/01/09 00:44:10;;;;;;;19.40;4.30;;;6.90;84.60;;;;;;5034078;28;20048;-71
2022/01/09 00:46:40;;;;;;;25.20;5.25;;;6.80;83.80;;;;;;5034959;28;20030;-71
2022/01/09 00:49:08;;;;;;;22.20;4.53;;;6.90;83.20;;;;;;5031162;28;20025;-72
2022/01/09 00:51:35;;;;;;;22.08;4.90;;;6.80;83.80;;;;;;5028512;28;20064;-71
2022/01/09 00:54:03;;;;;;;17.75;5.00;;;6.80;83.70;;;;;;5028501;28;20041;-72
2022/01/09 00:56:31;;;;;;;18.70;4.93;;;6.80;83.80;;;;;;5031824;28;20045;-72
2022/01/09 00:58:59;;;;;;;20.85;4.03;;;6.80;83.60;;;;;;5024663;28;20379;-71
2022/01/09 01:01:26;;;;;;;22.10;5.03;;;6.70;83.80;;;;;;5019320;28;20022;-71
2022/01/09 01:03:54;;;;;;;18.90;4.38;;;6.60;83.90;;;;;;5029602;28;20034;-71
2022/01/09 01:06:22;;;;;;;21.80;5.32;;;6.60;83.80;;;;;;5033690;28;20033;-71
2022/01/09 01:08:54;;;;;;;23.25;4.65;;;6.60;83.50;;;;;;5030167;28;20079;-72
2022/01/09 01:11:20;;;;;;;21.23;5.25;;;6.60;83.10;;;;;;5027970;28;20029;-71
2022/01/09 01:13:48;;;;;;;25.27;6.57;;;6.60;83.70;;;;;;5034719;28;20033;-72
2022/01/09 01:16:17;;;;;;;20.38;4.35;;;6.60;83.80;;;;;;5019754;28;20049;-73
2022/01/09 01:18:45;;;;;;;20.20;5.03;;;6.50;84.00;;;;;;5023553;28;20117;-72
2022/01/09 01:21:13;;;;;;;23.90;5.30;;;6.60;83.90;;;;;;5022095;28;20108;-72
2022/01/09 01:23:43;;;;;;;21.13;4.57;;;6.50;83.70;;;;;;5025970;28;20571;-72
2022/01/09 01:26:10;;;;;;;27.17;5.28;;;6.50;84.00;;;;;;5017975;28;20057;-72
2022/01/09 01:28:39;;;;;;;29.35;6.00;;;6.50;84.00;;;;;;5024739;28;20029;-72
2022/01/09 01:31:08;;;;;;;25.70;6.13;;;6.40;84.20;;;;;;5022654;28;20037;-72
2022/01/09 01:33:36;;;;;;;22.02;4.97;;;6.40;84.30;;;;;;5015990;28;20053;-72
2022/01/09 01:36:04;;;;;;;24.50;5.57;;;6.40;83.80;;;;;;5022460;28;20364;-72
2022/01/09 01:38:33;;;;;;;24.27;5.82;;;6.40;84.50;;;;;;5024290;28;20022;-73
2022/01/09 01:41:00;;;;;;;21.13;4.13;;;6.40;84.40;;;;;;5024934;28;20037;-72
2022/01/09 01:43:28;;;;;;;24.33;5.25;;;6.40;84.00;;;;;;5021932;28;21054;-73
2022/01/09 01:46:00;;;;;;;21.00;4.97;;;6.40;83.80;;;;;;5020275;28;20466;-74
2022/01/09 01:48:29;;;;;;;22.83;4.75;;;6.40;84.30;;;;;;5018746;28;20026;-72
2022/01/09 01:50:58;;;;;;;19.23;4.25;;;6.30;83.70;;;;;;5020057;28;20071;-74
2022/01/09 01:53:26;;;;;;;20.60;4.47;;;6.20;84.40;;;;;;5021950;28;20041;-72
2022/01/09 01:55:56;;;;;;;20.20;4.80;;;6.30;83.80;;;;;;5021311;28;20033;-72
2022/01/09 01:58:26;;;;;;;17.23;4.95;;;6.20;84.90;;;;;;5015837;28;20035;-72
2022/01/09 02:00:54;;;;;;;18.02;3.72;;;6.10;84.80;;;;;;5017248;28;20128;-72
2022/01/09 02:03:22;;;;;;;16.35;4.20;;;6.10;85.20;;;;;;5011984;28;20033;-72
2022/01/09 02:05:50;;;;;;;19.50;4.35;;;6.10;84.90;;;;;;5019697;28;20437;-71
2022/01/09 02:08:17;;;;;;;19.70;5.40;;;6.20;84.40;;;;;;5018386;28;20033;-72
2022/01/09 02:10:45;;;;;;;22.75;4.68;;;6.20;83.90;;;;;;5021386;28;20036;-72
2022/01/09 02:13:16;;;;;;;23.90;4.13;;;6.10;84.20;;;;;;5020291;28;20045;-73
2022/01/09 02:15:46;;;;;;;22.95;4.65;;;6.10;84.40;;;;;;5021878;28;20625;-74
2022/01/09 02:18:16;;;;;;;19.40;4.28;;;6.10;84.70;;;;;;5017280;28;20057;-73
2022/01/09 02:20:44;;;;;;;16.55;4.50;;;6.10;84.50;;;;;;5020408;28;20057;-72
2022/01/09 02:23:14;;;;;;;18.58;4.05;;;6.10;84.80;;;;;;5017820;28;20477;-72
2022/01/09 02:25:43;;;;;;;19.42;4.10;;;6.10;84.70;;;;;;5018677;28;20049;-73
2022/01/09 02:28:13;;;;;;;20.95;4.75;;;6.10;84.70;;;;;;5009634;28;20037;-72
2022/01/09 02:30:43;;;;;;;19.38;4.28;;;6.10;84.90;;;;;;5008511;28;20049;-72
2022/01/09 02:33:16;;;;;;;20.30;4.35;;;6.10;84.90;;;;;;5011736;28;20055;-74
2022/01/09 02:35:48;;;;;;;19.80;6.03;;;6.00;84.70;;;;;;5011367;28;20049;-71
2022/01/09 02:38:16;;;;;;;17.58;4.57;;;6.10;84.20;;;;;;5017345;28;20038;-72
2022/01/09 02:40:43;;;;;;;18.23;3.88;;;6.10;84.10;;;;;;5023545;28;20030;-72
2022/01/09 02:43:11;;;;;;;18.38;3.90;;;6.10;83.30;;;;;;5018227;28;20068;-73
2022/01/09 02:45:40;;;;;;;18.80;4.80;;;6.20;83.40;;;;;;5020752;28;20029;-72
2022/01/09 02:48:09;;;;;;;16.63;4.10;;;6.20;83.30;;;;;;5017533;28;20030;-72
2022/01/09 02:50:42;;;;;;;18.33;4.13;;;6.10;82.90;;;;;;5020449;28;20099;-73
2022/01/09 02:53:16;;;;;;;23.60;4.15;;;6.10;83.40;;;;;;5019198;28;20029;-73
2022/01/09 02:55:44;;;;;;;19.65;3.55;;;6.10;83.00;;;;;;5010738;28;20046;-72
2022/01/09 02:58:12;;;;;;;16.40;3.60;;;6.10;83.60;;;;;;5017809;28;20041;-72
2022/01/09 03:00:45;;;;;;;21.35;4.53;;;6.10;83.90;;;;;;5006052;28;20088;-73
2022/01/09 03:03:12;;;;;;;14.77;4.85;;;6.10;83.80;;;;;;5019490;28;20040;-73
2022/01/09 03:05:40;;;;;;;19.42;4.07;;;6.10;84.20;;;;;;5014986;28;20068;-72
2022/01/09 03:08:08;;;;;;;22.05;4.43;;;6.10;84.40;;;;;;5020567;28;20405;-72
2022/01/09 03:10:38;;;;;;;24.83;3.92;;;6.10;85.00;;;;;;5018908;28;20504;-72
2022/01/09 03:13:07;;;;;;;17.35;3.63;;;6.10;85.10;;;;;;5019441;28;20547;-72
2022/01/09 03:15:33;;;;;;;20.10;4.15;;;6.00;85.10;;;;;;5018330;28;20040;-72
2022/01/09 03:17:59;;;;;;;18.85;5.15;;;6.00;84.80;;;;;;5020325;28;20049;-72
2022/01/09 03:20:26;;;;;;;17.70;4.28;;;6.00;85.10;;;;;;5018953;28;20038;-72
2022/01/09 03:22:54;;;;;;;13.27;3.83;;;6.00;85.50;;;;;;5016593;28;20030;-72
2022/01/09 03:25:21;;;;;;;14.85;3.63;;;5.90;85.20;;;;;;5022600;28;20021;-72
2022/01/09 03:27:50;;;;;;;17.48;4.53;;;5.90;84.60;;;;;;5021980;28;20337;-72
2022/01/09 03:30:17;;;;;;;19.08;5.07;;;5.90;84.80;;;;;;5025505;28;20465;-72
2022/01/09 03:32:43;;;;;;;22.17;4.55;;;5.80;85.20;;;;;;5016794;28;20064;-72
2022/01/09 03:35:11;;;;;;;18.20;4.60;;;5.80;85.40;;;;;;5022882;28;20503;-72
2022/01/09 03:37:38;;;;;;;16.50;4.25;;;5.80;85.90;;;;;;5015158;28;20396;-71
2022/01/09 03:40:06;;;;;;;15.35;3.55;;;5.80;86.60;;;;;;5020697;28;20029;-73
2022/01/09 03:42:31;;;;;;;16.45;3.72;;;5.70;86.80;;;;;;5025070;28;20543;-73
2022/01/09 03:44:57;;;;;;;20.83;4.43;;;5.70;86.50;;;;;;5025933;28;20029;-74
2022/01/09 03:47:23;;;;;;;14.02;3.78;;;5.70;86.50;;;;;;5018240;28;20343;-75
2022/01/09 03:49:50;;;;;;;21.05;4.15;;;5.70;86.70;;;;;;5015249;28;20366;-74
2022/01/09 03:52:17;;;;;;;19.23;3.53;;;5.70;86.90;;;;;;5019526;28;20083;-73
2022/01/09 03:54:43;;;;;;;17.75;3.42;;;5.70;86.80;;;;;;5021365;28;20049;-73
2022/01/09 03:57:09;;;;;;;16.13;4.40;;;5.70;86.60;;;;;;5013507;28;20038;-74
2022/01/09 03:59:35;;;;;;;14.93;3.78;;;5.70;86.10;;;;;;5017158;28;20386;-72
2022/01/09 04:02:01;;;;;;;19.02;3.60;;;5.70;86.70;;;;;;5017041;28;20037;-72
2022/01/09 04:04:27;;;;;;;16.80;3.47;;;5.60;86.70;;;;;;5016132;28;20156;-72
2022/01/09 04:06:52;;;;;;;21.10;3.85;;;5.60;87.10;;;;;;5016054;28;20125;-73
2022/01/09 04:09:21;;;;;;;17.58;3.28;;;5.50;87.70;;;;;;5009067;28;20469;-72
2022/01/09 04:11:48;;;;;;;12.30;3.70;;;5.50;87.50;;;;;;5018275;28;20492;-72
2022/01/09 04:14:14;;;;;;;13.70;3.63;;;5.60;87.80;;;;;;5014818;28;20041;-72
2022/01/09 04:16:40;;;;;;;19.13;4.18;;;5.60;86.80;;;;;;5006991;28;20058;-73
2022/01/09 04:19:10;;;;;;;17.55;4.03;;;5.60;86.70;;;;;;5022410;28;20037;-72
2022/01/09 04:21:35;;;;;;;16.02;4.53;;;5.60;86.70;;;;;;5023860;28;20038;-71
2022/01/09 04:24:01;;;;;;;19.60;5.65;;;5.70;86.80;;;;;;5021795;28;20033;-72
2022/01/09 04:26:27;;;;;;;19.65;5.55;;;5.70;86.90;;;;;;5018500;28;20073;-73
2022/01/09 04:28:52;;;;;;;22.85;6.28;;;5.60;87.40;;;;;;5022667;28;20033;-72
2022/01/09 04:31:18;;;;;;;23.70;5.65;;;5.60;87.60;;;;;;5016504;28;20025;-71
2022/01/09 04:33:44;;;;;;;17.95;5.80;;;5.60;88.00;;;;;;5019364;28;20076;-71
2022/01/09 04:36:09;;;;;;;20.85;5.68;;;5.50;88.10;;;;;;5021601;28;20033;-71
2022/01/09 04:38:35;;;;;;;20.75;5.00;;;5.50;88.30;;;;;;5023977;28;20030;-72
2022/01/09 04:41:01;;;;;;;25.60;6.07;;;5.50;88.60;;;;;;5022469;28;20037;-72
2022/01/09 04:43:28;;;;;;;17.60;6.20;;;5.40;88.70;;;;;;5022089;28;20087;-72
2022/01/09 04:45:54;;;;;;;14.80;4.93;;;5.40;88.70;;;;;;5014299;28;20038;-72
2022/01/09 04:48:19;;;;;;;13.88;4.55;;;5.50;88.70;;;;;;5020709;28;20048;-73
2022/01/09 04:50:46;;;;;;;19.17;6.03;;;5.50;88.60;;;;;;5021275;28;20042;-72
2022/01/09 04:53:13;;;;;;;23.67;5.40;;;5.50;88.50;;;;;;5023316;28;20036;-72
2022/01/09 04:55:41;;;;;;;18.95;5.93;;;5.40;88.70;;;;;;5021317;28;20071;-71
2022/01/09 04:58:08;;;;;;;17.58;4.60;;;5.40;88.90;;;;;;5021345;28;20136;-72
2022/01/09 05:00:34;;;;;;;19.92;4.57;;;5.50;88.60;;;;;;5018716;28;20469;-72
2022/01/09 05:03:01;;;;;;;16.20;4.97;;;5.40;88.50;;;;;;5018929;28;20473;-71
2022/01/09 05:05:26;;;;;;;18.55;4.53;;;5.40;88.70;;;;;;5017339;28;20117;-72
2022/01/09 05:07:52;;;;;;;19.13;4.55;;;5.40;88.70;;;;;;5019476;28;20055;-74
2022/01/09 05:10:18;;;;;;;15.20;3.97;;;5.40;88.90;;;;;;5021881;28;20116;-72
2022/01/09 05:12:43;;;;;;;18.90;4.50;;;5.40;88.70;;;;;;5020224;28;20080;-72
2022/01/09 05:15:10;;;;;;;19.80;4.60;;;5.40;88.70;;;;;;5023074;28;20049;-71
2022/01/09 05:17:36;;;;;;;18.00;3.85;;;5.30;88.60;;;;;;5009135;28;20042;-72
2022/01/09 05:20:03;;;;;;;17.27;5.05;;;5.30;88.90;;;;;;5023350;28;20053;-71
2022/01/09 05:22:29;;;;;;;21.50;6.68;;;5.40;89.00;;;;;;5025116;28;20088;-71
2022/01/09 05:24:58;;;;;;;17.20;4.63;;;5.30;88.50;;;;;;5020963;28;20034;-73
2022/01/09 05:27:25;;;;;;;17.63;4.20;;;5.40;88.50;;;;;;5020700;28;20034;-75
2022/01/09 05:29:51;;;;;;;17.77;3.55;;;5.30;88.30;;;;;;5022401;28;20041;-73
2022/01/09 05:32:17;;;;;;;18.13;4.45;;;5.30;88.40;;;;;;5016914;28;20044;-72
2022/01/09 05:34:43;;;;;;;15.57;4.38;;;5.30;88.50;;;;;;5021371;28;20100;-74
2022/01/09 05:37:08;;;;;;;21.05;4.47;;;5.30;88.30;;;;;;5020705;28;20061;-72
2022/01/09 05:39:34;;;;;;;18.40;5.40;;;5.30;88.30;;;;;;5022392;28;20498;-72
2022/01/09 05:42:06;;;;;;;18.90;4.53;;;5.30;88.20;;;;;;5018928;28;20033;-72
2022/01/09 05:44:32;;;;;;;21.38;4.97;;;5.30;88.00;;;;;;5017162;28;20380;-74
2022/01/09 05:47:01;;;;;;;14.80;4.50;;;5.30;87.70;;;;;;5018247;28;20037;-74
2022/01/09 05:49:27;;;;;;;16.10;4.55;;;5.40;87.50;;;;;;5022383;28;20129;-73
2022/01/09 05:51:53;;;;;;;21.63;5.78;;;5.40;87.20;;;;;;5019450;28;20044;-73
2022/01/09 05:54:19;;;;;;;17.45;4.57;;;5.40;87.20;;;;;;5018115;28;20038;-72
2022/01/09 05:56:45;;;;;;;18.00;5.18;;;5.40;87.00;;;;;;5017322;28;20057;-72
2022/01/09 05:59:11;;;;;;;16.67;4.25;;;5.40;87.10;;;;;;5019314;28;20049;-73
2022/01/09 06:01:36;;;;;;;21.60;4.95;;;5.40;86.90;;;;;;5018522;28;20155;-72
2022/01/09 06:04:03;;;;;;;15.00;6.10;;;5.30;86.80;;;;;;5017047;28;20033;-74
2022/01/09 06:06:29;;;;;;;16.13;5.63;;;5.20;87.10;;;;;;5021186;28;20045;-74
2022/01/09 06:08:54;;;;;;;19.83;4.63;;;5.20;87.00;;;;;;5017368;28;20456;-72
2022/01/09 06:11:20;;;;;;;18.92;5.18;;;5.10;86.70;;;;;;5015674;28;20508;-73
2022/01/09 06:13:46;;;;;;;17.50;3.95;;;5.10;86.90;;;;;;5022026;28;20041;-72
2022/01/09 06:16:11;;;;;;;19.50;5.28;;;5.10;86.80;;;;;;5019399;28;20480;-75
2022/01/09 06:18:37;;;;;;;19.27;3.80;;;5.10;86.90;;;;;;5019641;28;20098;-72
2022/01/09 06:21:03;;;;;;;18.42;3.60;;;5.00;87.00;;;;;;5021242;28;20029;-71
2022/01/09 06:23:29;;;;;;;19.70;4.15;;;4.90;87.20;;;;;;5018468;28;20022;-73
2022/01/09 06:25:54;;;;;;;20.88;4.22;;;4.90;87.20;;;;;;5023504;28;20487;-72
2022/01/09 06:28:21;;;;;;;20.27;5.75;;;4.80;87.50;;;;;;5017222;28;20025;-73
2022/01/09 06:30:47;;;;;;;17.85;3.80;;;4.80;87.40;;;;;;5015565;28;20418;-73
2022/01/09 06:33:13;;;;;;;16.25;4.63;;;4.80;87.50;;;;;;5017492;28;20485;-72
2022/01/09 06:35:40;;;;;;;22.83;4.07;;;4.80;87.50;;;;;;5022170;28;20040;-71
2022/01/09 06:38:06;;;;;;;17.10;3.90;;;4.70;87.60;;;;;;5021852;28;20037;-73
2022/01/09 06:40:33;;;;;;;16.38;3.78;;;4.70;87.80;;;;;;5021617;28;20464;-72
2022/01/09 06:42:58;;;;;;;18.63;5.22;;;4.80;87.50;;;;;;5018769;28;20087;-72
2022/01/09 06:45:25;;;;;;;17.10;3.85;;;4.70;87.50;;;;;;5018026;28;20365;-73
2022/01/09 06:47:52;;;;;;;16.05;4.07;;;4.60;87.60;;;;;;5019146;28;20059;-71
2022/01/09 06:50:18;;;;;;;14.10;3.70;;;4.60;87.70;;;;;;5010562;28;20038;-70
2022/01/09 06:52:44;;;;;;;16.27;3.60;;;4.60;87.70;;;;;;5020070;28;20040;-73
2022/01/09 06:55:11;;;;;;;17.52;3.42;;;4.60;87.70;;;;;;5016746;28;20068;-72
2022/01/09 06:57:37;;;;;;;18.35;3.72;;;4.60;87.50;;;;;;5012668;28;20038;-72
2022/01/09 07:00:04;;;;;;;15.07;4.05;;;4.60;87.50;;;;;;5019597;28;20099;-73
2022/01/09 07:02:30;;;;;;;16.60;4.05;;;4.60;87.60;;;;;;5013613;28;20030;-72
2022/01/09 07:04:56;;;;;;;18.02;4.28;;;4.60;87.60;;;;;;5009695;28;20104;-72
2022/01/09 07:07:21;;;;;;;16.65;3.60;;;4.70;87.30;;;;;;5016999;28;20396;-72
2022/01/09 07:09:47;;;;;;;16.75;3.58;;;4.70;87.10;;;;;;5021890;28;20120;-72
2022/01/09 07:12:13;;;;;;;18.45;3.67;;;4.70;87.10;;;;;;5014613;28;20473;-72
2022/01/09 07:14:38;;;;;;;16.05;3.90;;;4.60;87.30;;;;;;5016249;28;20162;-71
2022/01/09 07:17:04;;;;;;;16.33;3.67;;;4.60;87.40;;;;;;5019013;28;20046;-72
2022/01/09 07:19:30;;;;;;;15.95;3.63;;;4.60;87.40;;;;;;5016536;28;20400;-72
2022/01/09 07:21:56;;;;;;;14.93;3.72;;;4.60;87.50;;;;;;5014921;28;20357;-73
2022/01/09 07:24:21;;;;;;;16.13;4.00;;;4.60;87.60;;;;;;5017529;28;20465;-74
2022/01/09 07:26:47;;;;;;;20.17;4.25;;;4.50;87.70;;;;;;5011236;28;20034;-71
2022/01/09 07:29:13;;;;;;;15.10;3.88;;;4.50;87.50;;;;;;5017634;28;20483;-72
2022/01/09 07:31:39;;;;;;;20.13;4.97;;;4.50;87.50;;;;;;5019678;28;20037;-74
2022/01/09 07:34:05;;;;;;;15.48;3.67;;;4.50;87.50;;;;;;5020088;28;20053;-72
2022/01/09 07:36:30;;;;;;;18.52;4.05;;;4.50;87.50;;;;;;5017904;28;20041;-71
2022/01/09 07:38:56;;;;;;;20.52;4.25;;;4.50;87.40;;;;;;5017996;28;20465;-72
2022/01/09 07:41:22;;;;;;;17.83;3.95;;;4.50;87.30;;;;;;5015026;28;20133;-71
2022/01/09 07:43:47;;;;;;;15.65;4.00;;;4.50;87.30;;;;;;5020079;28;20029;-72
2022/01/09 07:46:13;;;;;;;15.98;3.97;;;4.50;87.30;;;;;;5014427;28;20030;-72
2022/01/09 07:48:39;;;;;;;16.20;4.68;;;4.50;87.30;;;;;;5021204;28;20080;-74
2022/01/09 07:51:05;;;;;;;15.85;4.47;;;4.40;87.40;;;;;;5018283;28;20034;-73
2022/01/09 07:53:31;;;;;;;17.30;4.63;;;4.30;87.50;;;;;;5020413;28;20045;-72
2022/01/09 07:55:57;;;;;;;20.42;5.43;;;4.30;87.60;;;;;;5018580;28;20042;-75
2022/01/09 07:58:22;;;;;;;15.90;3.53;;;4.30;87.70;;;;;;5015771;28;20095;-72
2022/01/09 08:00:48;;;;;;;17.13;5.10;;;4.30;87.60;;;;;;5015840;28;20030;-73
2022/01/09 08:03:14;;;;;;;16.88;4.40;;;4.30;87.70;;;;;;5015548;28;20076;-72
2022/01/09 08:05:40;;;;;;;17.10;4.22;;;4.30;87.80;;;;;;5017970;28;20042;-72
2022/01/09 08:08:06;;;;;;;19.85;4.28;;;4.20;87.80;;;;;;5019849;28;20615;-71
2022/01/09 08:10:33;;;;;;;21.25;5.35;;;4.20;87.80;;;;;;5013882;28;20041;-72
2022/01/09 08:13:00;;;;;;;25.23;5.05;;;4.20;87.70;;;;;;5010208;28;20117;-73
2022/01/09 08:15:26;;;;;;;21.40;4.95;;;4.20;87.70;;;;;;5015608;28;20548;-71
2022/01/09 08:17:54;;;;;;;18.30;4.72;;;4.20;87.80;;;;;;5013004;28;20034;-73
2022/01/09 08:20:20;;;;;;;20.70;4.75;;;4.20;87.70;;;;;;5008702;28;20377;-72
2022/01/09 08:22:46;;;;;;;23.33;5.47;;;4.20;87.80;;;;;;5028306;28;20108;-71
2022/01/09 08:25:14;;;;;;;18.63;5.10;;;4.30;87.80;;;;;;5014266;28;20108;-72
2022/01/09 08:27:40;;;;;;;19.50;5.40;;;4.20;87.80;;;;;;5011533;28;20042;-71
2022/01/09 08:30:10;;;;;;;15.23;4.47;;;4.30;87.50;;;;;;5018792;28;20064;-73
2022/01/09 08:32:37;;;;;;;16.98;4.72;;;4.40;87.30;;;;;;5016565;28;20033;-74
2022/01/09 08:35:04;;;;;;;16.42;4.72;;;4.40;87.50;;;;;;5013541;28;20073;-73
2022/01/09 08:37:29;;;;;;;13.93;4.32;;;4.40;87.40;;;;;;5012174;28;20050;-72
2022/01/09 08:39:55;;;;;;;14.70;5.32;;;4.40;87.40;;;;;;5012903;28;20037;-74
2022/01/09 08:42:20;;;;;;;19.00;5.13;;;4.40;87.40;;;;;;5010238;28;20095;-72
2022/01/09 08:44:46;;;;;;;23.45;5.57;;;4.50;87.30;;;;;;5016659;28;20662;-74
2022/01/09 08:47:12;;;;;;;17.08;4.72;;;4.50;87.10;;;;;;5020073;28;20041;-74
2022/01/09 08:49:37;;;;;;;18.83;5.10;;;4.50;87.10;;;;;;5032945;28;20034;-74
2022/01/09 08:52:04;;;;;;;19.70;4.53;;;4.60;87.00;;;;;;5019903;28;20083;-73
2022/01/09 08:54:30;;;;;;;22.20;5.45;;;4.60;87.00;;;;;;5015030;28;20033;-73
2022/01/09 08:56:56;;;;;;;19.15;4.85;;;4.70;86.90;;;;;;5012118;28;20042;-75
2022/01/09 08:59:22;;;;;;;21.23;6.00;;;4.70;86.50;;;;;;5013597;28;20037;-73
2022/01/09 09:01:48;;;;;;;20.00;4.97;;;4.80;86.40;;;;;;5014520;28;20412;-72
2022/01/09 09:04:14;;;;;;;18.80;4.85;;;4.80;86.20;;;;;;5011453;28;20434;-73
2022/01/09 09:06:40;;;;;;;18.58;4.65;;;4.90;86.10;;;;;;5014169;28;20388;-73
2022/01/09 09:09:07;;;;;;;15.80;3.83;;;5.00;85.60;;;;;;5015976;28;20040;-78
2022/01/09 09:11:33;;;;;;;17.30;4.90;;;5.10;85.50;;;;;;5017923;28;20124;-75
2022/01/09 09:13:58;;;;;;;15.55;4.70;;;5.20;85.00;;;;;;5019855;28;20113;-75
2022/01/09 09:16:24;;;;;;;23.85;5.90;;;5.20;85.00;;;;;;5015417;28;20262;-74
2022/01/09 09:18:50;;;;;;;21.92;5.00;;;5.30;85.10;;;;;;5010512;28;20036;-74
2022/01/09 09:21:16;;;;;;;22.15;6.13;;;5.40;84.80;;;;;;5011707;28;20029;-75
2022/01/09 09:23:42;;;;;;;21.85;5.72;;;5.40;84.80;;;;;;5008951;28;20034;-79
2022/01/09 09:26:09;;;;;;;17.90;4.90;;;5.50;84.40;;;;;;5009389;28;20129;-79
2022/01/09 09:28:36;;;;;;;14.77;4.75;;;5.60;84.00;;;;;;5016908;28;20119;-79
2022/01/09 09:31:03;;;;;;;13.80;4.70;;;5.60;83.90;;;;;;5011176;28;20985;-74
2022/01/09 09:33:28;;;;;;;19.90;5.22;;;5.70;83.60;;;;;;5013780;28;20033;-76
2022/01/09 09:35:54;;;;;;;16.77;5.10;;;5.70;83.40;;;;;;5011038;28;20061;-74
2022/01/09 09:38:20;;;;;;;16.95;5.18;;;5.80;83.30;;;;;;5015248;28;20507;-74
2022/01/09 09:40:45;;;;;;;21.10;5.68;;;5.90;82.80;;;;;;5020169;28;20048;-77
2022/01/09 09:43:11;;;;;;;19.92;5.05;;;5.80;83.20;;;;;;5016004;28;20026;-76
2022/01/09 09:45:37;;;;;;;21.30;5.60;;;5.90;83.10;;;;;;5012152;28;20045;-74
2022/01/09 09:48:03;;;;;;;16.23;5.53;;;5.90;83.00;;;;;;5009472;28;20069;-76
2022/01/09 09:50:29;;;;;;;21.15;5.53;;;6.00;82.90;;;;;;5013202;28;20041;-77
2022/01/09 09:52:55;;;;;;;22.40;5.88;;;6.10;82.80;;;;;;5009935;28;20492;-74
2022/01/09 09:55:21;;;;;;;20.38;5.97;;;6.10;82.90;;;;;;5008413;28;20041;-73
2022/01/09 09:57:46;;;;;;;17.92;5.60;;;6.10;83.00;;;;;;5002388;28;20043;-77
2022/01/09 10:00:19;;;;;;;21.00;5.68;;;6.20;82.80;;;;;;5004117;28;20121;-76
2022/01/09 10:02:58;;;;;;;18.60;5.85;;;6.30;82.70;;;;;;5014498;28;20030;-75
2022/01/09 10:05:36;;;;;;;17.67;5.18;;;6.40;82.20;;;;;;5017450;28;20061;-73
2022/01/09 10:08:07;;;;;;;22.02;5.95;;;6.40;82.20;;;;;;5016589;28;20037;-74
2022/01/09 10:10:37;;;;;;;22.23;6.18;;;6.60;81.80;;;;;;5009705;28;20042;-77
2022/01/09 10:13:10;;;;;;;19.02;5.53;;;6.60;81.40;;;;;;5018079;28;20045;-73
2022/01/09 10:15:47;;;;;;;18.45;5.38;;;6.60;81.00;;;;;;5014465;28;20038;-74
2022/01/09 10:18:13;;;;;;;16.73;6.53;;;6.60;81.00;;;;;;5009472;28;20499;-77
2022/01/09 10:20:39;;;;;;;16.33;6.05;;;6.60;81.30;;;;;;5014876;28;20574;-73
2022/01/09 10:23:05;;;;;;;16.27;6.18;;;6.80;82.00;;;;;;5004381;28;20133;-80
2022/01/09 10:25:36;;;;;;;18.38;6.40;;;6.80;80.90;;;;;;5017442;28;20029;-78
2022/01/09 10:28:12;;;;;;;13.70;5.22;;;6.90;80.20;;;;;;5017337;28;20060;-74
2022/01/09 10:30:42;;;;;;;14.18;5.18;;;7.00;80.30;;;;;;5020459;28;20033;-73
2022/01/09 10:33:12;;;;;;;14.13;4.90;;;7.10;79.80;;;;;;5014791;28;20088;-76
2022/01/09 10:35:39;;;;;;;19.15;5.60;;;7.10;80.30;;;;;;5019025;28;20488;-74
2022/01/09 10:38:07;;;;;;;19.52;4.88;;;7.30;79.60;;;;;;5018121;28;20116;-73
2022/01/09 10:40:36;;;;;;;18.67;4.78;;;7.20;79.10;;;;;;5016537;28;20061;-76
2022/01/09 10:43:04;;;;;;;15.40;4.75;;;7.20;79.40;;;;;;5014924;28;20102;-74
2022/01/09 10:45:31;;;;;;;22.05;5.63;;;7.30;79.10;;;;;;5013915;28;20029;-79
2022/01/09 10:48:11;;;;;;;18.13;5.47;;;7.20;79.60;;;;;;5012480;28;20068;-79
2022/01/09 10:50:40;;;;;;;16.33;5.93;;;7.20;79.50;;;;;;5010924;28;20046;-80
2022/01/09 10:53:17;;;;;;;21.23;6.60;;;7.10;79.90;;;;;;5015045;28;20480;-82
2022/01/09 10:55:45;;;;;;;19.00;6.93;;;7.10;80.20;;;;;;5013447;28;20052;-73
2022/01/09 10:58:23;;;;;;;22.00;4.88;;;7.40;80.10;;;;;;5006177;28;20655;-73
2022/01/09 11:01:14;;;;;;;16.25;5.03;;;7.40;79.30;;;;;;5010956;28;20076;-80
2022/01/09 11:03:42;;;;;;;16.98;5.60;;;7.40;79.10;;;;;;5006671;28;20423;-78
2022/01/09 11:06:09;;;;;;;13.32;4.35;;;7.50;79.20;;;;;;5010489;28;20588;-74
2022/01/09 11:08:35;;;;;;;18.67;5.03;;;7.60;78.60;;;;;;5013622;28;20030;-75
2022/01/09 11:11:06;;;;;;;21.23;6.05;;;7.50;78.70;;;;;;5009067;28;20053;-87
2022/01/09 11:13:32;;;;;;;19.33;4.95;;;7.50;79.00;;;;;;5005685;28;20034;-73
2022/01/09 11:18:44;;;;;;;23.00;6.32;;;7.60;78.90;;;;;;5022517;28;20412;-76
2022/01/09 11:21:10;;;;;;;14.60;4.55;;;7.60;79.50;;;;;;5006132;28;20148;-72
2022/01/09 11:24:10;;;;;;;22.48;6.82;;;7.60;78.10;;;;;;5015539;28;20430;-72
2022/01/09 11:26:48;;;;;;;17.42;5.72;;;7.40;78.70;;;;;;5009588;28;20049;-75
2022/01/09 11:29:17;;;;;;;18.02;5.40;;;7.50;79.00;;;;;;5012541;28;20030;-74
2022/01/09 11:31:51;;;;;;;18.30;5.30;;;7.50;78.60;;;;;;5007196;28;20044;-76
2022/01/09 11:34:30;;;;;;;13.20;4.57;;;7.50;79.20;;;;;;5018357;28;21455;-73
2022/01/09 11:37:07;;;;;;;18.00;5.07;;;7.70;78.80;;;;;;5007824;28;20037;-74
2022/01/09 11:39:36;;;;;;;21.17;5.00;;;7.80;77.80;;;;;;5022478;28;20076;-78
2022/01/09 11:42:15;;;;;;;14.73;4.05;;;7.70;77.40;;;;;;5007533;28;20030;-75
2022/01/09 11:44:53;;;;;;;17.45;5.10;;;7.60;77.70;;;;;;5010843;28;20541;-71
2022/01/09 11:47:20;;;;;;;23.80;5.50;;;7.70;78.00;;;;;;5013437;28;20053;-76
2022/01/09 11:49:56;;;;;;;20.23;5.25;;;7.90;77.10;;;;;;5017984;28;20110;-72
2022/01/09 11:52:24;;;;;;;13.93;4.32;;;8.00;76.60;;;;;;5015614;28;20046;-72
2022/01/09 11:55:32;;;;;;;20.10;5.00;;;8.10;76.60;;;;;;5017338;28;20120;-80
2022/01/09 11:58:02;;;;;;;21.52;4.88;;;8.20;76.40;;;;;;5014886;28;20045;-75
2022/01/09 12:00:33;;;;;;;19.17;5.82;;;8.20;76.10;;;;;;5015988;28;20044;-74
2022/01/09 12:03:00;;;;;;;16.85;4.13;;;8.20;76.10;;;;;;5015755;28;20038;-72
2022/01/09 12:05:26;;;;;;;14.88;3.90;;;8.00;76.00;;;;;;5016206;28;20581;-73
2022/01/09 12:07:53;;;;;;;21.58;5.57;;;7.80;77.50;;;;;;5020117;28;20060;-71
2022/01/09 12:10:35;;;;;;;18.92;4.80;;;7.70;77.20;;;;;;5005772;28;20061;-72
2022/01/09 12:13:02;;;;;;;16.92;5.00;;;7.60;77.60;;;;;;5018485;28;20043;-79
2022/01/09 12:15:39;;;;;;;16.67;4.45;;;7.50;78.80;;;;;;5012471;28;20073;-72
2022/01/09 12:18:28;;;;;;;16.80;4.10;;;7.40;78.90;;;;;;5015264;28;20041;-81
2022/01/09 12:20:58;;;;;;;17.92;4.78;;;7.40;78.80;;;;;;5011489;28;20526;-77
2022/01/09 12:23:26;;;;;;;14.85;4.00;;;7.30;79.30;;;;;;4993178;28;20378;-73
2022/01/09 12:25:54;;;;;;;18.35;4.03;;;7.30;79.20;;;;;;5010210;28;20045;-73
2022/01/09 12:28:34;;;;;;;17.85;4.30;;;7.20;79.30;;;;;;5015245;28;20325;-76
2022/01/09 12:31:03;;;;;;;19.20;4.10;;;7.10;79.40;;;;;;5011753;28;20388;-71
2022/01/09 12:33:31;;;;;;;16.08;4.07;;;7.10;79.50;;;;;;5011081;28;20127;-75
2022/01/09 12:35:58;;;;;;;19.95;5.10;;;7.10;79.70;;;;;;5015892;28;20033;-71
2022/01/09 12:38:28;;;;;;;20.10;5.15;;;7.10;79.10;;;;;;5012986;28;20041;-73
2022/01/09 12:41:00;;;;;;;18.73;4.70;;;7.10;78.70;;;;;;5028504;28;20070;-80
2022/01/09 12:43:28;;;;;;;16.27;5.20;;;7.10;78.80;;;;;;5016726;28;20128;-73
2022/01/09 12:45:54;;;;;;;20.98;6.13;;;7.20;78.00;;;;;;5014317;28;20037;-76
2022/01/09 12:48:20;;;;;;;12.90;4.72;;;7.30;77.90;;;;;;5025382;28;20034;-75
2022/01/09 12:50:47;;;;;;;21.27;5.05;;;7.40;78.00;;;;;;5017857;28;20056;-75
2022/01/09 12:53:26;;;;;;;18.48;4.43;;;7.60;77.40;;;;;;5014476;28;20378;-76
2022/01/09 12:56:12;;;;;;;16.95;4.28;;;7.60;77.40;;;;;;5016205;28;20041;-72